Hamburg, New Jersey
Current Conditions -  °F | °C
As of 10:53 PM on Thursday 18 Dec 2014 (Local Time) from KFWN Reporting Station
Overcast Overcast  
Wind Chill: 32°   Ceiling: 2600
Heat Index: 36°   Visibility: 10mi
Dew Point: 26°   Wind: 5mph
Humidity: 67%   Direction: 310°NW
Pressure: 29.98"   Gusts: NA
Location:  41.15°N, 74.58°W
Report Text: KFWN 190353Z AUTO 31004KT 10SM OVC026 02/M03 A2998 RMK AO2 SLP155 T00221033
Loading
Personal Weather Stations






























Interactive Weather Map New forecast layout! Learn more

10-Day Weather Forecast

Advertisements
Track Severe Weather on mobile